createdAt,value
2023-03-20T00:00:17.297Z,11.35
2023-03-20T00:03:19.293Z,10.38
2023-03-20T00:06:23.318Z,11.48
2023-03-20T00:09:25.722Z,10.40
2023-03-20T00:12:29.568Z,14.32
2023-03-20T00:15:35.238Z,11.75
2023-03-20T00:18:37.771Z,11.77
2023-03-20T00:21:40.054Z,11.55
2023-03-20T00:24:42.998Z,11.52
2023-03-20T00:27:48.042Z,13.57
2023-03-20T00:30:50.304Z,15.50
2023-03-20T00:33:54.965Z,12.63
2023-03-20T00:36:57.405Z,21.38
2023-03-20T00:39:59.642Z,16.67
2023-03-20T00:43:04.797Z,17.02
2023-03-20T00:46:12.423Z,13.95
2023-03-20T00:49:14.547Z,12.93
2023-03-20T00:52:17.843Z,11.15
2023-03-20T00:55:21.930Z,10.95
2023-03-20T00:58:25.853Z,16.17
2023-03-20T01:01:29.198Z,16.85
2023-03-20T01:04:35.827Z,12.30
2023-03-20T01:07:39.847Z,12.13
2023-03-20T01:10:43.215Z,16.92
2023-03-20T01:13:47.315Z,15.93
2023-03-20T01:16:49.576Z,12.77
2023-03-20T01:19:51.768Z,15.25
2023-03-20T01:22:53.654Z,14.48
2023-03-20T01:25:55.516Z,14.93
2023-03-20T01:28:58.816Z,13.98
2023-03-20T01:32:01.144Z,15.07
2023-03-20T01:35:03.471Z,14.18
2023-03-20T01:38:13.619Z,14.65
2023-03-20T01:41:17.399Z,13.10
2023-03-20T01:44:23.973Z,16.05
2023-03-20T01:47:25.809Z,13.63
2023-03-20T01:50:31.661Z,12.60
2023-03-20T01:53:33.923Z,13.48
2023-03-20T01:56:41.832Z,11.45
2023-03-20T01:59:48.440Z,15.70
2023-03-20T02:02:51.809Z,11.82
2023-03-20T02:05:55.272Z,15.30
2023-03-20T02:08:57.049Z,14.43
2023-03-20T02:12:00.309Z,10.95
2023-03-20T02:15:03.872Z,13.05
2023-03-20T02:18:05.791Z,13.60
2023-03-20T02:21:57.343Z,12.75
2023-03-20T02:28:47.820Z,14.27
2023-03-20T02:32:41.342Z,13.38
2023-03-20T02:36:31.410Z,13.30
2023-03-20T02:39:52.018Z,15.85
2023-03-20T02:43:03.396Z,16.95
2023-03-20T02:46:14.995Z,14.48
2023-03-20T02:49:33.946Z,12.80
2023-03-20T02:52:49.653Z,13.82
2023-03-20T02:56:02.590Z,16.13
2023-03-20T02:59:12.698Z,13.65
2023-03-20T03:02:27.192Z,15.57
2023-03-20T03:05:36.817Z,12.43
2023-03-20T03:08:45.168Z,14.75
2023-03-20T03:11:51.877Z,13.88
2023-03-20T03:14:59.672Z,16.20
2023-03-20T03:18:05.762Z,16.98
2023-03-20T03:21:09.746Z,13.13
2023-03-20T03:24:39.877Z,15.73
2023-03-20T03:27:49.160Z,16.60
2023-03-20T03:30:52.607Z,14.47
2023-03-20T03:33:57.814Z,14.85
2023-03-20T03:37:06.544Z,16.77
2023-03-20T03:40:17.056Z,17.73
2023-03-20T03:43:27.654Z,18.92
2023-03-20T03:46:44.566Z,16.90
2023-03-20T03:49:52.051Z,15.10
2023-03-20T03:52:57.197Z,16.20
2023-03-20T03:56:03.676Z,16.15
2023-03-20T03:59:11.811Z,19.98
2023-03-20T04:02:17.086Z,19.30
2023-03-20T04:05:20.503Z,20.10
2023-03-20T04:08:22.306Z,19.10
2023-03-20T04:11:28.166Z,19.83
2023-03-20T04:14:31.927Z,21.92
2023-03-20T04:17:35.326Z,24.88
2023-03-20T04:20:37.158Z,20.40
2023-03-20T04:23:39.147Z,18.90
2023-03-20T04:26:42.279Z,21.08
2023-03-20T04:29:45.795Z,19.40
2023-03-20T04:32:48.132Z,18.85
2023-03-20T04:35:50.882Z,18.58
2023-03-20T04:38:54.615Z,18.40
2023-03-20T04:41:58.664Z,18.90
2023-03-20T04:45:02.902Z,20.98
2023-03-20T04:48:05.128Z,17.42
2023-03-20T04:51:07.960Z,18.38
2023-03-20T04:54:10.272Z,17.33
2023-03-20T04:57:12.410Z,18.73
2023-03-20T05:00:17.024Z,16.73
2023-03-20T05:03:19.874Z,17.77
2023-03-20T05:06:22.956Z,26.30
2023-03-20T05:09:24.856Z,17.88
2023-03-20T05:12:27.142Z,15.18
2023-03-20T05:15:30.814Z,17.67
2023-03-20T05:18:32.684Z,16.98
2023-03-20T05:21:34.644Z,17.67
2023-03-20T05:24:36.921Z,17.15
2023-03-20T05:27:39.204Z,20.52
2023-03-20T05:30:42.478Z,19.77
2023-03-20T05:33:44.306Z,18.73
2023-03-20T05:36:46.157Z,18.52
2023-03-20T05:39:48.056Z,14.60
2023-03-20T05:42:49.826Z,16.67
2023-03-20T05:45:54.207Z,13.40
2023-03-20T05:48:58.029Z,13.50
2023-03-20T05:51:59.929Z,14.02
2023-03-20T05:55:01.866Z,16.02
2023-03-20T05:58:03.672Z,12.52
2023-03-20T06:01:07.347Z,12.68
2023-03-20T06:04:10.191Z,13.32
2023-03-20T06:07:12.162Z,12.52
2023-03-20T06:10:13.930Z,16.60
2023-03-20T06:13:15.994Z,12.00
2023-03-20T06:16:19.690Z,17.10
2023-03-20T06:19:22.172Z,11.00
2023-03-20T06:22:24.110Z,11.48
2023-03-20T06:25:26.205Z,12.38
2023-03-20T06:28:28.193Z,13.82
2023-03-20T06:31:31.914Z,10.90
2023-03-20T06:34:36.439Z,13.85
2023-03-20T06:37:38.550Z,16.90
2023-03-20T06:40:40.719Z,18.13
2023-03-20T06:43:42.620Z,19.77
2023-03-20T06:46:46.005Z,18.33
2023-03-20T06:49:47.916Z,19.00
2023-03-20T06:52:49.817Z,20.33
2023-03-20T06:55:54.385Z,17.80
2023-03-20T06:58:56.602Z,19.70
2023-03-20T07:01:59.968Z,17.95
2023-03-20T07:05:02.280Z,18.38
2023-03-20T07:08:04.519Z,17.85
2023-03-20T07:11:07.408Z,17.00
2023-03-20T07:14:09.641Z,18.27
2023-03-20T07:17:13.166Z,16.25
2023-03-20T07:20:15.659Z,14.45
2023-03-20T07:23:17.589Z,15.23
2023-03-20T07:26:19.657Z,17.20
2023-03-20T07:29:21.471Z,16.23
2023-03-20T07:32:24.873Z,14.32
2023-03-20T07:35:27.084Z,12.88
2023-03-20T07:41:51.853Z,13.70
2023-03-20T07:44:54.143Z,14.23
2023-03-20T07:48:00.706Z,15.02
2023-03-20T07:51:02.856Z,11.18
2023-03-20T07:54:06.425Z,12.00
2023-03-20T07:57:08.372Z,10.43
2023-03-20T08:00:13.165Z,10.77
2023-03-20T08:03:16.810Z,12.27
2023-03-20T08:06:19.062Z,11.32
2023-03-20T08:09:21.144Z,11.45
2023-03-20T08:12:22.976Z,10.20
2023-03-20T08:15:24.975Z,10.77
2023-03-20T08:18:29.647Z,13.63
2023-03-20T08:21:33.246Z,9.82
2023-03-20T08:24:35.192Z,9.38
2023-03-20T08:27:37.787Z,8.32
2023-03-20T08:30:40.824Z,8.35
2023-03-20T08:33:44.282Z,6.80
2023-03-20T08:36:47.163Z,6.93
2023-03-20T08:39:49.434Z,10.73
2023-03-20T08:42:51.306Z,7.82
2023-03-20T08:45:53.460Z,6.68
2023-03-20T08:48:56.865Z,5.75
2023-03-20T08:51:59.978Z,6.00
2023-03-20T08:55:02.256Z,6.13
2023-03-20T08:58:04.586Z,6.15
2023-03-20T09:01:10.096Z,6.82
2023-03-20T09:04:14.862Z,6.78
2023-03-20T09:07:19.193Z,6.85
2023-03-20T09:10:21.517Z,6.28
2023-03-20T09:13:27.456Z,8.85
2023-03-20T09:16:29.920Z,8.45
2023-03-20T09:19:34.853Z,8.52
2023-03-20T09:22:38.349Z,8.52
2023-03-20T09:25:40.875Z,9.15
2023-03-20T09:28:45.309Z,6.97
2023-03-20T09:31:47.368Z,6.70
2023-03-20T09:34:50.670Z,7.60
2023-03-20T09:41:20.564Z,7.70
2023-03-20T09:44:37.437Z,6.93
2023-03-20T09:47:47.434Z,6.22
2023-03-20T09:50:58.198Z,7.10
2023-03-20T09:54:04.949Z,9.35
2023-03-20T09:57:13.775Z,6.65
2023-03-20T10:00:19.202Z,6.55
2023-03-20T10:03:25.020Z,7.05
2023-03-20T10:06:29.535Z,8.20
2023-03-20T10:09:33.399Z,7.45
2023-03-20T10:12:51.059Z,7.60
2023-03-20T10:15:57.730Z,7.68
2023-03-20T10:19:08.892Z,8.35
2023-03-20T10:22:20.923Z,6.40
2023-03-20T10:25:28.829Z,6.75
2023-03-20T10:28:37.717Z,6.10
2023-03-20T10:31:46.459Z,5.55
2023-03-20T10:35:01.325Z,8.32
2023-03-20T10:38:21.450Z,5.53
2023-03-20T10:41:29.950Z,8.60
2023-03-20T10:44:36.854Z,5.90
2023-03-20T10:47:42.897Z,6.00
2023-03-20T10:50:48.936Z,6.72
2023-03-20T10:53:54.877Z,6.50
2023-03-20T10:56:59.643Z,8.82
2023-03-20T11:00:05.330Z,10.90
2023-03-20T11:03:08.276Z,7.88
2023-03-20T11:06:18.427Z,10.50
2023-03-20T11:09:24.250Z,7.32
2023-03-20T11:12:33.286Z,7.20
2023-03-20T11:15:38.143Z,10.00
2023-03-20T11:18:42.170Z,10.23
2023-03-20T11:21:47.428Z,13.15
2023-03-20T11:24:55.125Z,9.57
2023-03-20T11:28:19.851Z,9.20
2023-03-20T11:31:30.841Z,12.23
2023-03-20T11:34:37.470Z,9.57
2023-03-20T11:37:46.949Z,9.80
2023-03-20T11:40:52.194Z,10.15
2023-03-20T11:43:55.044Z,8.30
2023-03-20T11:47:01.703Z,8.68
2023-03-20T11:50:07.874Z,8.05
2023-03-20T11:53:43.075Z,12.18
2023-03-20T11:56:55.050Z,10.35
2023-03-20T11:59:57.934Z,9.88
2023-03-20T12:03:00.338Z,8.98
2023-03-20T12:06:05.207Z,5.70
2023-03-20T12:09:21.141Z,6.55
2023-03-20T12:12:37.369Z,7.70
2023-03-20T12:15:44.767Z,7.50
2023-03-20T12:18:49.517Z,11.25
2023-03-20T12:21:59.008Z,6.85
2023-03-20T12:28:17.583Z,9.52
2023-03-20T12:31:26.817Z,7.95
2023-03-20T12:34:35.314Z,11.10
2023-03-20T12:37:37.206Z,10.00
2023-03-20T12:40:44.040Z,11.00
2023-03-20T12:44:18.512Z,10.15
2023-03-20T12:47:47.301Z,9.68
2023-03-20T12:50:54.722Z,10.38
2023-03-20T12:54:10.576Z,9.57
2023-03-20T12:57:24.613Z,10.52
2023-03-20T13:00:33.764Z,18.90
2023-03-20T13:03:52.600Z,9.85
2023-03-20T13:06:56.591Z,10.30
2023-03-20T13:10:09.372Z,9.27
2023-03-20T13:13:21.682Z,11.77
2023-03-20T13:16:36.231Z,8.85
2023-03-20T13:19:47.346Z,8.07
2023-03-20T13:23:01.263Z,9.02
2023-03-20T13:26:14.925Z,9.02
2023-03-20T13:29:27.550Z,10.13
2023-03-20T13:32:41.357Z,8.88
2023-03-20T13:35:54.563Z,8.32
2023-03-20T13:39:03.454Z,8.73
2023-03-20T13:42:12.838Z,7.75
2023-03-20T13:48:33.493Z,4.88
2023-03-20T13:51:42.189Z,3.97
2023-03-20T13:55:08.690Z,5.15
2023-03-20T13:58:25.904Z,3.67
2023-03-20T14:01:39.203Z,3.63
2023-03-20T14:04:41.880Z,3.50
2023-03-20T14:07:49.065Z,5.30
2023-03-20T14:11:05.971Z,3.88
2023-03-20T14:14:14.919Z,5.90
2023-03-20T14:17:21.761Z,9.23
2023-03-20T14:20:32.152Z,5.95
2023-03-20T14:23:38.077Z,4.85
2023-03-20T14:26:41.751Z,5.15
2023-03-20T14:29:44.080Z,4.50
2023-03-20T14:33:00.367Z,6.07
2023-03-20T14:36:18.172Z,4.72
2023-03-20T14:39:34.939Z,4.15
2023-03-20T14:42:43.130Z,4.20
2023-03-20T14:45:52.256Z,4.25
2023-03-20T14:48:56.259Z,5.97
2023-03-20T14:52:10.562Z,2.85
2023-03-20T14:55:34.030Z,3.63
2023-03-20T14:58:52.324Z,6.47
2023-03-20T15:01:58.462Z,2.47
2023-03-20T15:05:00.635Z,3.35
2023-03-20T15:08:07.333Z,3.67
2023-03-20T15:11:13.970Z,5.22
2023-03-20T15:14:22.771Z,2.78
2023-03-20T15:17:27.499Z,3.78
2023-03-20T15:20:29.391Z,3.22
2023-03-20T15:23:35.418Z,3.97
2023-03-20T15:26:39.786Z,5.15
2023-03-20T15:29:46.906Z,10.30
2023-03-20T15:32:52.911Z,2.65
2023-03-20T15:35:56.036Z,4.05
2023-03-20T15:39:11.510Z,3.88
2023-03-20T15:42:17.604Z,4.85
2023-03-20T15:45:25.351Z,3.63
2023-03-20T15:48:27.771Z,6.78
2023-03-20T15:51:30.701Z,4.70
2023-03-20T15:54:34.045Z,4.78
2023-03-20T15:57:40.715Z,6.35
2023-03-20T16:00:46.379Z,6.35
2023-03-20T16:03:49.072Z,4.93
2023-03-20T16:06:55.613Z,3.15
2023-03-20T16:09:58.272Z,6.18
2023-03-20T16:13:03.157Z,5.20
2023-03-20T16:16:08.661Z,3.47
2023-03-20T16:19:12.933Z,8.48
2023-03-20T16:22:25.812Z,10.82
2023-03-20T16:25:27.848Z,7.55
2023-03-20T16:28:36.578Z,3.55
2023-03-20T16:31:45.711Z,4.40
2023-03-20T16:34:51.535Z,4.90
2023-03-20T16:41:28.330Z,8.38
2023-03-20T16:44:35.272Z,10.43
2023-03-20T16:47:39.922Z,5.78
2023-03-20T16:50:43.796Z,7.50
2023-03-20T16:53:47.899Z,6.13
2023-03-20T16:56:54.037Z,6.72
2023-03-20T17:03:30.491Z,32.88
2023-03-20T17:06:38.036Z,6.43
2023-03-20T17:09:54.846Z,5.15
2023-03-20T17:12:57.839Z,7.80
2023-03-20T17:16:01.871Z,7.22
2023-03-20T17:19:09.593Z,5.88
2023-03-20T17:22:16.130Z,6.70
2023-03-20T17:28:44.054Z,11.25
2023-03-20T17:31:47.742Z,6.57
2023-03-20T17:34:50.768Z,7.53
2023-03-20T17:37:53.505Z,5.97
2023-03-20T17:40:57.199Z,5.70
2023-03-20T17:43:59.532Z,4.53
2023-03-20T17:47:03.637Z,5.35
2023-03-20T17:50:09.421Z,8.40
2023-03-20T17:53:18.716Z,5.93
2023-03-20T17:59:25.619Z,11.95
2023-03-20T18:02:31.800Z,8.52
2023-03-20T18:05:36.636Z,7.95
2023-03-20T18:08:40.413Z,7.07
2023-03-20T18:11:43.203Z,7.40
2023-03-20T18:14:46.682Z,9.23
2023-03-20T18:17:51.371Z,12.68
2023-03-20T18:20:56.748Z,18.23
2023-03-20T18:23:59.807Z,15.18
2023-03-20T18:27:04.645Z,9.65
2023-03-20T18:30:17.988Z,23.02
2023-03-20T18:33:22.668Z,9.25
2023-03-20T18:36:25.462Z,11.95
2023-03-20T18:39:28.362Z,13.77
2023-03-20T18:42:31.446Z,7.40
2023-03-20T18:45:36.118Z,7.20
2023-03-20T18:48:41.172Z,7.20
2023-03-20T18:51:44.452Z,8.80
2023-03-20T18:54:48.981Z,8.30
2023-03-20T18:57:52.189Z,6.85
2023-03-20T19:00:56.609Z,11.25
2023-03-20T19:04:01.651Z,10.10
2023-03-20T19:07:05.075Z,12.90
2023-03-20T19:10:26.262Z,13.65
2023-03-20T19:13:30.352Z,14.50
2023-03-20T19:16:37.075Z,11.65
2023-03-20T19:19:44.164Z,10.57
2023-03-20T19:22:47.053Z,10.50
2023-03-20T19:25:51.789Z,7.70
2023-03-20T19:28:54.475Z,9.10
2023-03-20T19:31:58.149Z,8.45
2023-03-20T19:38:27.441Z,9.65
2023-03-20T19:41:32.149Z,6.88
2023-03-20T19:44:36.028Z,8.18
2023-03-20T19:47:41.462Z,22.63
2023-03-20T19:50:49.561Z,16.63
2023-03-20T19:53:54.124Z,13.38
2023-03-20T19:57:00.983Z,12.57
2023-03-20T20:03:29.795Z,7.28
2023-03-20T20:06:39.794Z,9.27
2023-03-20T20:09:43.673Z,10.20
2023-03-20T20:12:47.040Z,7.55
2023-03-20T20:15:54.133Z,5.65
2023-03-20T20:18:57.416Z,5.57
2023-03-20T20:22:25.683Z,6.68
2023-03-20T20:25:28.593Z,6.18
2023-03-20T20:28:42.139Z,6.57
2023-03-20T20:31:45.783Z,5.55
2023-03-20T20:35:35.685Z,12.35
2023-03-20T20:41:44.166Z,4.72
2023-03-20T20:44:46.700Z,7.10
2023-03-20T20:47:50.360Z,9.25
2023-03-20T20:50:53.582Z,7.40
2023-03-20T20:53:57.732Z,6.50
2023-03-20T20:57:02.034Z,15.90
2023-03-20T21:00:09.026Z,6.80
2023-03-20T21:03:14.387Z,5.13
2023-03-20T21:06:17.811Z,4.25
2023-03-20T21:09:22.259Z,5.47
2023-03-20T21:12:36.373Z,7.15
2023-03-20T21:15:42.831Z,7.82
2023-03-20T21:18:45.566Z,8.52
2023-03-20T21:21:47.400Z,5.20
2023-03-20T21:24:53.809Z,5.97
2023-03-20T21:28:00.772Z,6.32
2023-03-20T21:31:23.476Z,7.70
2023-03-20T21:34:27.281Z,5.45
2023-03-20T21:40:55.192Z,5.70
2023-03-20T21:44:00.770Z,8.20
2023-03-20T21:48:04.275Z,6.90
2023-03-20T21:54:48.524Z,13.60
2023-03-20T21:58:15.143Z,16.90
2023-03-20T22:01:23.198Z,14.63
2023-03-20T22:07:56.288Z,7.43
2023-03-20T22:15:12.044Z,12.10
2023-03-20T22:18:28.808Z,11.15
2023-03-20T22:28:28.495Z,6.10
2023-03-20T22:45:01.769Z,8.75
2023-03-20T22:48:06.984Z,8.93
2023-03-20T22:51:09.232Z,7.65
2023-03-20T22:54:11.092Z,8.85
2023-03-20T22:57:15.877Z,10.60
2023-03-20T23:00:22.344Z,9.55
2023-03-20T23:03:40.330Z,8.52
2023-03-20T23:06:45.370Z,11.95
2023-03-20T23:09:47.592Z,11.40
2023-03-20T23:12:49.664Z,14.32
2023-03-20T23:15:51.924Z,11.48
2023-03-20T23:18:55.068Z,9.13
2023-03-20T23:21:58.232Z,11.10
2023-03-20T23:25:11.580Z,12.65
2023-03-20T23:28:17.003Z,13.75
2023-03-20T23:31:24.409Z,13.70
2023-03-20T23:34:29.982Z,10.50
2023-03-20T23:37:31.774Z,12.15
2023-03-20T23:40:34.002Z,11.88
2023-03-20T23:43:35.869Z,11.27
2023-03-20T23:46:39.530Z,11.27
2023-03-20T23:49:43.118Z,11.00
2023-03-20T23:52:49.962Z,12.52
2023-03-20T23:55:59.593Z,12.57
2023-03-20T23:59:11.546Z,10.57
